Time;durP1;ratioP1;P1;durP2;ratioP2;P2;SDS_P1;SDS_P2;PMS_P1;PMS_P2;Temp;Humidity;BMP_temperature;BMP_pressure;BME280_temperature;BME280_humidity;BME280_pressure;Samples;Min_cycle;Max_cycle;Signal;HPM_P1;HPM_P2
2024/04/21 00:01:37;;;;;;;2.70;2.60;;;3.90;99.90;;;;;;5467259;26;19998;-73
2024/04/21 00:04:04;;;;;;;3.22;2.92;;;3.90;99.90;;;;;;5507882;26;20022;-73
2024/04/21 00:06:31;;;;;;;5.85;2.53;;;3.90;99.90;;;;;;5486785;26;20379;-73
2024/04/21 00:08:58;;;;;;;4.75;2.30;;;3.90;99.90;;;;;;5452229;26;19999;-73
2024/04/21 00:11:25;;;;;;;4.53;4.22;;;3.90;99.90;;;;;;5489203;26;20002;-73
2024/04/21 00:13:52;;;;;;;1.75;1.65;;;4.00;99.90;;;;;;5519191;26;19998;-73
2024/04/21 00:16:19;;;;;;;3.85;2.67;;;3.90;99.90;;;;;;5490937;26;20435;-73
2024/04/21 00:18:47;;;;;;;3.40;3.20;;;4.00;99.90;;;;;;5519439;26;19998;-72
2024/04/21 00:21:14;;;;;;;5.45;2.85;;;3.90;99.90;;;;;;5519636;26;20034;-73
2024/04/21 00:23:41;;;;;;;1.95;1.85;;;3.90;99.90;;;;;;5490759;26;20043;-73
2024/04/21 00:26:08;;;;;;;8.57;3.72;;;3.90;99.90;;;;;;5490557;26;20002;-73
2024/04/21 00:28:35;;;;;;;2.33;2.28;;;3.90;99.90;;;;;;5488961;26;20037;-73
2024/04/21 00:31:02;;;;;;;2.38;2.28;;;3.90;99.90;;;;;;5488677;26;20074;-72
2024/04/21 00:33:29;;;;;;;4.78;3.40;;;4.00;99.90;;;;;;5488928;26;20014;-73
2024/04/21 00:35:57;;;;;;;4.38;3.83;;;4.00;99.90;;;;;;5490621;26;19998;-73
2024/04/21 00:38:24;;;;;;;3.30;1.80;;;4.00;99.90;;;;;;5519761;26;19998;-73
2024/04/21 00:40:51;;;;;;;5.78;2.90;;;4.00;99.90;;;;;;5488575;26;19994;-73
2024/04/21 00:43:18;;;;;;;5.15;2.65;;;4.10;99.90;;;;;;5519536;26;20443;-73
2024/04/21 00:45:46;;;;;;;11.77;4.07;;;4.00;99.90;;;;;;5490318;26;19994;-73
2024/04/21 00:48:14;;;;;;;4.95;3.72;;;4.10;99.90;;;;;;5488991;26;20008;-73
2024/04/21 00:50:48;;;;;;;3.42;1.60;;;4.00;99.90;;;;;;5490803;26;19998;-73
2024/04/21 00:53:17;;;;;;;5.93;2.90;;;4.10;99.90;;;;;;5490538;26;19998;-73
2024/04/21 00:55:44;;;;;;;4.18;2.75;;;4.10;99.90;;;;;;5490610;26;20424;-73
2024/04/21 00:58:14;;;;;;;3.95;2.45;;;4.10;99.90;;;;;;5519112;26;20014;-72
2024/04/21 01:00:42;;;;;;;4.70;2.55;;;4.10;99.90;;;;;;5451979;26;1004067;-73
2024/04/21 01:03:09;;;;;;;7.22;5.07;;;4.00;99.90;;;;;;5487979;26;20516;-72
2024/04/21 01:05:36;;;;;;;8.52;3.15;;;4.00;99.90;;;;;;5490081;26;20012;-73
2024/04/21 01:08:04;;;;;;;3.97;2.63;;;4.00;99.90;;;;;;5490038;26;20055;-73
2024/04/21 01:10:32;;;;;;;7.70;3.60;;;3.90;99.90;;;;;;5519139;26;19998;-73
2024/04/21 01:12:59;;;;;;;4.43;2.95;;;3.90;99.90;;;;;;5487961;26;19997;-72
2024/04/21 01:15:26;;;;;;;3.15;2.88;;;3.90;99.90;;;;;;5488560;26;20430;-72
2024/04/21 01:17:53;;;;;;;2.63;2.42;;;3.90;99.90;;;;;;5518652;26;20009;-72
2024/04/21 01:20:21;;;;;;;1.98;1.80;;;4.00;99.90;;;;;;5489857;26;20026;-73
2024/04/21 01:22:49;;;;;;;5.45;2.30;;;4.00;99.90;;;;;;5489145;26;20070;-72
2024/04/21 01:25:16;;;;;;;8.10;3.38;;;3.90;99.90;;;;;;5488601;26;20025;-73
2024/04/21 01:27:44;;;;;;;4.03;2.38;;;3.90;99.90;;;;;;5490083;26;20000;-73
2024/04/21 01:30:11;;;;;;;5.25;2.13;;;3.90;99.90;;;;;;5487785;26;19995;-73
2024/04/21 01:32:39;;;;;;;8.73;3.20;;;3.90;99.90;;;;;;5488015;26;20010;-73
2024/04/21 01:35:07;;;;;;;4.57;2.88;;;3.90;99.90;;;;;;5489453;26;20443;-73
2024/04/21 01:37:38;;;;;;;3.65;2.78;;;3.90;99.90;;;;;;5487881;26;20360;-73
2024/04/21 01:40:05;;;;;;;;;;;3.90;99.90;;;;;;5490038;26;20010;-73
2024/04/21 01:42:32;;;;;;;4.22;2.28;;;3.80;99.90;;;;;;5489750;26;20316;-73
2024/04/21 01:44:59;;;;;;;2.63;1.15;;;3.80;99.90;;;;;;5518057;26;20401;-73
2024/04/21 01:47:26;;;;;;;1.65;1.40;;;3.80;99.90;;;;;;5518333;26;20073;-72
2024/04/21 01:49:53;;;;;;;4.53;2.25;;;3.80;99.90;;;;;;5489188;26;20020;-73
2024/04/21 01:52:21;;;;;;;4.40;3.17;;;3.80;99.90;;;;;;5489598;26;20002;-73
2024/04/21 01:54:48;;;;;;;9.55;3.88;;;3.80;99.90;;;;;;5489872;26;19994;-73
2024/04/21 01:57:15;;;;;;;3.60;2.17;;;3.90;99.90;;;;;;5489546;26;20415;-73
2024/04/21 01:59:42;;;;;;;4.32;2.33;;;4.00;99.90;;;;;;5489596;26;19998;-73
2024/04/21 02:02:09;;;;;;;4.45;3.13;;;3.90;99.90;;;;;;5489023;26;20010;-73
2024/04/21 02:04:36;;;;;;;3.20;2.67;;;4.00;99.90;;;;;;5489719;26;20004;-73
2024/04/21 02:07:05;;;;;;;4.32;2.92;;;4.00;99.90;;;;;;5489308;26;20353;-73
2024/04/21 02:09:32;;;;;;;7.38;4.43;;;4.00;99.90;;;;;;5457427;26;19994;-73
2024/04/21 02:11:59;;;;;;;6.75;2.25;;;4.00;99.90;;;;;;5488826;26;20042;-72
2024/04/21 02:14:26;;;;;;;5.93;3.33;;;4.00;99.90;;;;;;5489161;26;19998;-73
2024/04/21 02:16:53;;;;;;;4.47;2.80;;;4.00;99.90;;;;;;5489089;26;19998;-73
2024/04/21 02:19:20;;;;;;;6.10;3.15;;;4.00;99.90;;;;;;5488729;26;20074;-73
2024/04/21 02:21:50;;;;;;;4.15;3.65;;;4.10;99.90;;;;;;5487348;26;20014;-73
2024/04/21 02:24:17;;;;;;;6.28;3.15;;;4.10;99.90;;;;;;5486914;26;20071;-73
2024/04/21 02:26:44;;;;;;;3.92;3.03;;;4.00;99.90;;;;;;5487142;26;20075;-73
2024/04/21 02:29:11;;;;;;;3.40;2.70;;;4.00;99.90;;;;;;5488656;26;19998;-73
2024/04/21 02:31:38;;;;;;;3.67;2.05;;;4.00;99.90;;;;;;5487291;26;20074;-73
2024/04/21 02:34:05;;;;;;;3.97;2.58;;;4.00;99.90;;;;;;5456318;26;20313;-73
2024/04/21 02:36:32;;;;;;;2.17;1.92;;;3.80;99.90;;;;;;5489229;26;20352;-73
2024/04/21 02:38:59;;;;;;;5.15;3.20;;;3.80;99.90;;;;;;5487100;26;20005;-73
2024/04/21 02:41:26;;;;;;;2.63;2.42;;;3.80;99.90;;;;;;5517964;26;19998;-73
2024/04/21 02:43:53;;;;;;;3.75;3.65;;;3.60;99.90;;;;;;5489237;26;19994;-73
2024/04/21 02:46:21;;;;;;;4.45;3.05;;;3.50;99.90;;;;;;5486840;26;19994;-73
2024/04/21 02:48:48;;;;;;;6.20;2.58;;;3.30;99.90;;;;;;5456572;26;20008;-73
2024/04/21 02:51:15;;;;;;;2.95;2.72;;;3.20;99.90;;;;;;5486628;26;20379;-73
2024/04/21 02:53:42;;;;;;;3.55;3.33;;;3.10;99.90;;;;;;5488551;26;20010;-73
2024/04/21 02:56:09;;;;;;;3.15;2.95;;;2.90;99.90;;;;;;5488411;26;19999;-73
2024/04/21 02:58:36;;;;;;;4.18;3.97;;;2.80;99.90;;;;;;5517192;26;19999;-73
2024/04/21 03:01:04;;;;;;;5.53;5.18;;;2.60;99.90;;;;;;5475352;26;20007;-73
2024/04/21 03:03:31;;;;;;;4.03;3.38;;;2.50;99.90;;;;;;5451603;26;20013;-73
2024/04/21 03:05:59;;;;;;;3.35;3.10;;;2.40;99.90;;;;;;5450372;26;19999;-73
2024/04/21 03:08:26;;;;;;;5.65;2.60;;;2.30;99.90;;;;;;5420145;26;19999;-73
2024/04/21 03:10:53;;;;;;;4.22;3.85;;;2.20;99.90;;;;;;5452229;26;20007;-73
2024/04/21 03:13:20;;;;;;;3.25;3.10;;;2.10;99.90;;;;;;5449973;26;19995;-73
2024/04/21 03:15:51;;;;;;;4.65;4.00;;;2.00;99.90;;;;;;5452213;26;20034;-73
2024/04/21 03:18:18;;;;;;;3.95;3.22;;;1.90;99.90;;;;;;5451477;26;19999;-73
2024/04/21 03:20:58;;;;;;;5.10;4.65;;;1.80;99.90;;;;;;5450099;26;19995;-73
2024/04/21 03:23:26;;;;;;;5.10;4.15;;;1.80;99.90;;;;;;5480385;26;20003;-73
2024/04/21 03:25:53;;;;;;;4.13;3.63;;;1.70;99.90;;;;;;5451727;26;20003;-73
2024/04/21 03:28:20;;;;;;;2.55;2.22;;;1.70;99.90;;;;;;5451083;26;20011;-73
2024/04/21 03:30:55;;;;;;;4.28;3.97;;;1.60;99.90;;;;;;5449749;26;20071;-73
2024/04/21 03:33:22;;;;;;;3.70;2.97;;;1.60;99.90;;;;;;5451203;26;19999;-73
2024/04/21 03:36:10;;;;;;;2.25;2.05;;;1.50;99.90;;;;;;5449573;26;19999;-73
2024/04/21 03:38:37;;;;;;;3.17;2.83;;;1.50;99.90;;;;;;5449678;26;20078;-73
2024/04/21 03:41:05;;;;;;;2.95;2.75;;;1.40;99.90;;;;;;5451403;26;20079;-73
2024/04/21 03:43:33;;;;;;;3.25;2.45;;;1.40;99.90;;;;;;5451460;26;20074;-73
2024/04/21 03:46:00;;;;;;;3.17;2.88;;;1.40;99.90;;;;;;5454417;26;20400;-73
2024/04/21 03:48:27;;;;;;;3.55;2.85;;;1.30;99.90;;;;;;5423204;26;20332;-73
2024/04/21 03:50:54;;;;;;;5.07;4.03;;;1.40;99.90;;;;;;5454952;26;20068;-73
2024/04/21 03:53:22;;;;;;;3.75;2.00;;;1.40;99.90;;;;;;5423433;26;20366;-73
2024/04/21 03:55:49;;;;;;;4.55;3.05;;;1.30;99.90;;;;;;5483851;26;20320;-73
2024/04/21 03:58:16;;;;;;;5.68;3.42;;;1.20;99.90;;;;;;5452979;26;19999;-73
2024/04/21 04:00:46;;;;;;;2.42;2.33;;;1.20;99.90;;;;;;5483335;26;20068;-73
2024/04/21 04:03:14;;;;;;;3.83;2.92;;;1.10;99.90;;;;;;5452855;26;20089;-73
2024/04/21 04:05:45;;;;;;;5.80;5.32;;;1.10;99.90;;;;;;5452789;26;20344;-73
2024/04/21 04:08:13;;;;;;;5.03;3.50;;;1.20;99.90;;;;;;5454404;26;20015;-73
2024/04/21 04:10:41;;;;;;;3.88;3.58;;;1.10;99.90;;;;;;5452816;26;19998;-73
2024/04/21 04:13:08;;;;;;;9.57;4.22;;;1.10;99.90;;;;;;5452875;26;20014;-73
2024/04/21 04:15:36;;;;;;;5.32;3.08;;;1.00;99.90;;;;;;5452278;26;19999;-73
2024/04/21 04:18:03;;;;;;;4.13;3.80;;;1.10;99.90;;;;;;5454523;26;19999;-73
2024/04/21 04:20:31;;;;;;;5.28;3.25;;;1.00;99.90;;;;;;5452571;26;20005;-73
2024/04/21 04:23:00;;;;;;;3.72;2.08;;;1.00;99.90;;;;;;5452585;26;19999;-73
2024/04/21 04:25:27;;;;;;;5.90;5.35;;;1.10;99.90;;;;;;5452242;26;20079;-73
2024/04/21 04:27:54;;;;;;;3.50;3.22;;;1.10;99.90;;;;;;5454393;26;19999;-73
2024/04/21 04:30:22;;;;;;;5.63;5.05;;;1.00;99.90;;;;;;5454097;26;19995;-73
2024/04/21 04:32:49;;;;;;;6.25;2.65;;;1.10;99.90;;;;;;5454502;26;20006;-73
2024/04/21 04:35:16;;;;;;;4.30;3.58;;;1.10;99.90;;;;;;5422694;26;19999;-73
2024/04/21 04:37:43;;;;;;;4.78;4.47;;;1.10;99.90;;;;;;5452518;26;20005;-73
2024/04/21 04:40:11;;;;;;;7.20;5.32;;;1.10;99.90;;;;;;5452554;26;20007;-73
2024/04/21 04:42:38;;;;;;;6.05;3.40;;;1.10;99.90;;;;;;5452529;26;20428;-73
2024/04/21 04:45:05;;;;;;;5.70;4.18;;;1.20;99.90;;;;;;5453984;26;19999;-73
2024/04/21 04:47:32;;;;;;;5.43;4.70;;;1.30;99.90;;;;;;5422255;26;20525;-73
2024/04/21 04:49:59;;;;;;;4.78;3.72;;;1.30;99.90;;;;;;5453979;26;20011;-73
2024/04/21 04:52:27;;;;;;;10.23;4.13;;;1.60;99.90;;;;;;5453793;26;19999;-73
2024/04/21 04:54:54;;;;;;;6.57;4.75;;;1.60;99.90;;;;;;5453857;26;20002;-73
2024/04/21 04:57:21;;;;;;;3.78;3.45;;;1.70;99.90;;;;;;5451962;26;20010;-73
2024/04/21 04:59:48;;;;;;;2.85;2.35;;;1.90;99.90;;;;;;5451967;26;20079;-73
2024/04/21 05:02:15;;;;;;;9.35;3.97;;;2.00;99.90;;;;;;5463267;26;20047;-73
2024/04/21 05:04:42;;;;;;;5.10;3.85;;;2.20;99.90;;;;;;5452847;26;20013;-73
2024/04/21 05:07:10;;;;;;;5.18;3.10;;;2.20;99.90;;;;;;5451358;26;20363;-73
2024/04/21 05:09:39;;;;;;;3.38;3.08;;;2.40;99.90;;;;;;5451520;26;20397;-73
2024/04/21 05:12:07;;;;;;;5.57;5.05;;;2.20;99.90;;;;;;5453871;26;19995;-73
2024/04/21 05:14:34;;;;;;;9.20;4.25;;;2.20;99.90;;;;;;5482060;26;19998;-73
2024/04/21 05:17:01;;;;;;;10.20;3.65;;;2.20;99.90;;;;;;5453607;26;20036;-73
2024/04/21 05:19:28;;;;;;;4.03;2.65;;;2.20;99.90;;;;;;5451686;26;20452;-73
2024/04/21 05:21:55;;;;;;;5.80;3.55;;;2.30;99.90;;;;;;5453809;26;20381;-73
2024/04/21 05:24:22;;;;;;;6.97;3.75;;;2.30;99.90;;;;;;5453188;26;19999;-73
2024/04/21 05:26:49;;;;;;;3.92;2.60;;;2.30;99.90;;;;;;5451369;26;20079;-73
2024/04/21 05:29:16;;;;;;;6.18;2.75;;;2.40;99.90;;;;;;5453260;26;20394;-73
2024/04/21 05:31:43;;;;;;;6.22;5.00;;;2.50;99.90;;;;;;5451276;26;20455;-74
2024/04/21 05:34:12;;;;;;;6.80;2.72;;;2.60;99.90;;;;;;5453126;26;20026;-73
2024/04/21 05:36:39;;;;;;;6.90;3.63;;;2.70;99.90;;;;;;5451150;26;20323;-73
2024/04/21 05:39:06;;;;;;;8.40;3.75;;;2.90;99.90;;;;;;5453098;26;20006;-73
2024/04/21 05:41:33;;;;;;;3.38;3.13;;;3.10;99.90;;;;;;5452860;26;19999;-73
2024/04/21 05:44:00;;;;;;;5.43;3.58;;;3.30;99.90;;;;;;5451485;26;20014;-73
2024/04/21 05:46:27;;;;;;;6.32;3.20;;;3.40;99.90;;;;;;5451316;26;20071;-73
2024/04/21 05:48:55;;;;;;;7.18;6.88;;;3.50;99.90;;;;;;5451701;26;20010;-73
2024/04/21 05:51:22;;;;;;;3.40;2.45;;;3.50;99.90;;;;;;5453372;26;20331;-73
2024/04/21 05:53:49;;;;;;;3.30;2.80;;;3.60;99.90;;;;;;5481435;26;20063;-73
2024/04/21 05:56:16;;;;;;;5.28;2.75;;;3.70;99.90;;;;;;5453016;26;20145;-73
2024/04/21 05:58:43;;;;;;;4.03;2.70;;;3.90;99.90;;;;;;5452627;26;19998;-73
2024/04/21 06:01:10;;;;;;;4.32;3.60;;;4.00;99.90;;;;;;5482318;25;20005;-73
2024/04/21 06:03:37;;;;;;;5.28;4.68;;;4.10;99.90;;;;;;5469906;26;20521;-73
2024/04/21 06:06:06;;;;;;;5.53;2.88;;;4.20;99.90;;;;;;5482027;26;20033;-73
2024/04/21 06:08:34;;;;;;;6.70;5.15;;;4.40;99.90;;;;;;5452201;25;20022;-73
2024/04/21 06:11:01;;;;;;;8.52;4.82;;;4.80;99.90;;;;;;5492167;26;19998;-73
2024/04/21 06:13:28;;;;;;;5.85;3.28;;;5.30;99.90;;;;;;5525281;25;20334;-73
2024/04/21 06:15:55;;;;;;;3.65;3.38;;;5.90;99.90;;;;;;5493346;26;20012;-73
2024/04/21 06:18:22;;;;;;;6.57;4.45;;;6.40;99.90;;;;;;5525768;25;20447;-73
2024/04/21 06:20:49;;;;;;;3.35;3.05;;;6.90;99.90;;;;;;5493298;26;20421;-73
2024/04/21 06:23:16;;;;;;;3.35;3.03;;;7.40;99.90;;;;;;5525785;25;19997;-73
2024/04/21 06:25:43;;;;;;;5.70;3.85;;;7.70;99.90;;;;;;5523644;26;19997;-73
2024/04/21 06:28:11;;;;;;;3.33;2.97;;;7.90;99.90;;;;;;5523832;26;20001;-72
2024/04/21 06:30:40;;;;;;;4.00;3.15;;;8.10;99.90;;;;;;5525769;25;19997;-73
2024/04/21 06:33:08;;;;;;;5.60;2.72;;;8.40;99.90;;;;;;5524144;26;20005;-73
2024/04/21 06:35:35;;;;;;;3.80;2.85;;;8.60;99.90;;;;;;5525339;25;19994;-73
2024/04/21 06:38:02;;;;;;;6.57;3.60;;;8.60;99.90;;;;;;5524003;26;20001;-72
2024/04/21 06:40:29;;;;;;;3.88;2.88;;;8.40;99.90;;;;;;5524012;26;20065;-72
2024/04/21 06:42:56;;;;;;;4.28;2.85;;;8.30;99.90;;;;;;5525543;25;19997;-73
2024/04/21 06:45:23;;;;;;;6.18;3.70;;;8.00;99.90;;;;;;5525562;25;20026;-73
2024/04/21 06:47:50;;;;;;;9.02;4.68;;;7.80;99.90;;;;;;5524929;25;20207;-73
2024/04/21 06:50:18;;;;;;;4.03;3.70;;;7.70;99.90;;;;;;5493094;26;20340;-73
2024/04/21 06:52:45;;;;;;;4.68;4.28;;;7.80;99.90;;;;;;5524930;25;20446;-72
2024/04/21 06:55:12;;;;;;;6.20;4.30;;;7.70;99.90;;;;;;5525212;25;19998;-73
2024/04/21 06:57:40;;;;;;;4.95;3.88;;;8.00;99.90;;;;;;5524880;25;20047;-73
2024/04/21 07:00:08;;;;;;;9.07;4.90;;;8.30;99.90;;;;;;5523346;26;20013;-72
2024/04/21 07:02:35;;;;;;;4.82;4.43;;;8.20;99.90;;;;;;5523121;25;20008;-72
2024/04/21 07:05:02;;;;;;;5.10;4.70;;;8.10;99.90;;;;;;5525219;25;20478;-73
2024/04/21 07:07:29;;;;;;;6.47;3.90;;;7.80;99.90;;;;;;5525352;25;20001;-73
2024/04/21 07:09:56;;;;;;;5.53;4.47;;;7.70;99.90;;;;;;5523058;26;20474;-72
2024/04/21 07:12:24;;;;;;;4.95;4.55;;;8.00;99.90;;;;;;5525219;26;20008;-72
2024/04/21 07:14:51;;;;;;;5.07;3.95;;;8.40;99.90;;;;;;5523094;26;20066;-72
2024/04/21 07:17:18;;;;;;;5.18;3.78;;;8.90;99.90;;;;;;5492891;26;20065;-72
2024/04/21 07:19:45;;;;;;;3.70;3.28;;;9.40;99.90;;;;;;5524049;26;20042;-73
2024/04/21 07:22:12;;;;;;;4.25;3.53;;;10.10;99.90;;;;;;5526904;26;20001;-73
2024/04/21 07:24:39;;;;;;;5.57;4.00;;;11.00;99.90;;;;;;5528071;25;20366;-73
2024/04/21 07:27:07;;;;;;;4.57;3.22;;;11.80;99.90;;;;;;5526380;26;20077;-74
2024/04/21 07:29:34;;;;;;;4.00;3.58;;;12.20;99.90;;;;;;5528616;25;20045;-74
2024/04/21 07:32:02;;;;;;;3.50;3.08;;;12.50;99.90;;;;;;5528234;25;20073;-74
2024/04/21 07:34:29;;;;;;;3.65;3.33;;;12.50;98.10;;;;;;5526670;26;20005;-74
2024/04/21 07:36:57;;;;;;;3.47;3.17;;;12.50;99.80;;;;;;5526309;26;20052;-74
2024/04/21 07:39:27;;;;;;;4.25;3.85;;;12.80;98.10;;;;;;5526259;26;20005;-74
2024/04/21 07:41:55;;;;;;;3.58;2.88;;;12.90;98.10;;;;;;5525956;26;20318;-74
2024/04/21 07:44:22;;;;;;;3.45;2.40;;;13.10;96.50;;;;;;5526401;26;19994;-75
2024/04/21 07:46:49;;;;;;;3.03;2.40;;;13.00;95.60;;;;;;5495839;26;20391;-75
2024/04/21 07:49:16;;;;;;;3.83;3.38;;;12.80;95.70;;;;;;5528524;25;20065;-75
2024/04/21 07:51:43;;;;;;;6.60;3.08;;;12.80;97.00;;;;;;5528100;25;20450;-75
2024/04/21 07:54:10;;;;;;;3.25;2.95;;;13.00;96.80;;;;;;5528014;25;20005;-75
2024/04/21 07:56:37;;;;;;;3.65;2.67;;;13.20;96.00;;;;;;5526569;26;20394;-75
2024/04/21 07:59:05;;;;;;;2.65;2.40;;;12.90;95.40;;;;;;5528027;25;20005;-75
2024/04/21 08:01:32;;;;;;;3.38;2.40;;;12.50;95.80;;;;;;5527486;25;20431;-75
2024/04/21 08:03:59;;;;;;;3.90;3.60;;;12.10;95.80;;;;;;5527530;25;20084;-75
2024/04/21 08:06:26;;;;;;;3.65;3.35;;;11.90;96.20;;;;;;5526179;26;20033;-75
2024/04/21 08:08:53;;;;;;;4.07;3.78;;;12.20;95.80;;;;;;5525596;26;20073;-76
2024/04/21 08:11:25;;;;;;;3.28;2.90;;;12.70;96.50;;;;;;5526062;26;20031;-75
2024/04/21 08:13:52;;;;;;;3.88;3.47;;;13.40;96.00;;;;;;5525757;26;19997;-75
2024/04/21 08:16:19;;;;;;;3.60;3.30;;;14.10;94.00;;;;;;5527660;25;19997;-75
2024/04/21 08:18:46;;;;;;;4.18;3.85;;;14.20;92.30;;;;;;5527305;25;20009;-76
2024/04/21 08:21:13;;;;;;;4.18;2.88;;;14.50;93.20;;;;;;5527277;25;20336;-75
2024/04/21 08:23:41;;;;;;;3.33;3.03;;;14.90;92.00;;;;;;5525708;26;20388;-75
2024/04/21 08:26:08;;;;;;;3.30;3.10;;;15.50;92.80;;;;;;5527642;25;20420;-75
2024/04/21 08:28:36;;;;;;;5.30;3.67;;;16.30;92.40;;;;;;5527760;25;20069;-75
2024/04/21 08:31:03;;;;;;;3.60;3.30;;;16.80;90.40;;;;;;5494458;26;20002;-75
2024/04/21 08:33:30;;;;;;;4.45;2.70;;;17.10;89.10;;;;;;5527505;25;20394;-75
2024/04/21 08:35:58;;;;;;;3.85;3.55;;;17.10;86.10;;;;;;5527355;25;20016;-75
2024/04/21 08:38:27;;;;;;;3.38;3.17;;;16.90;85.80;;;;;;5527713;25;20005;-75
2024/04/21 08:40:55;;;;;;;3.97;3.25;;;16.50;86.00;;;;;;5527262;25;20060;-74
2024/04/21 08:43:26;;;;;;;3.55;3.25;;;16.00;85.70;;;;;;5525587;26;19998;-74
2024/04/21 08:45:55;;;;;;;4.88;4.43;;;15.80;85.60;;;;;;5527041;25;20009;-74
2024/04/21 08:48:23;;;;;;;4.22;3.92;;;15.70;87.90;;;;;;5525208;26;20022;-75
2024/04/21 08:50:50;;;;;;;4.63;4.10;;;16.10;88.30;;;;;;5526687;25;20447;-75
2024/04/21 08:53:18;;;;;;;3.75;3.45;;;16.40;86.80;;;;;;5495046;26;20009;-74
2024/04/21 08:55:49;;;;;;;2.80;2.60;;;16.30;84.40;;;;;;5527245;25;20001;-74
2024/04/21 08:58:18;;;;;;;3.50;3.20;;;16.10;83.40;;;;;;5525601;26;20027;-75
2024/04/21 09:00:46;;;;;;;4.43;3.22;;;16.10;82.50;;;;;;5527135;25;20001;-75
2024/04/21 09:03:16;;;;;;;5.35;3.33;;;16.30;82.80;;;;;;5526805;25;20001;-75
2024/04/21 09:05:49;;;;;;;3.10;2.80;;;16.60;81.60;;;;;;5527518;25;20069;-75
2024/04/21 09:08:16;;;;;;;3.13;2.85;;;16.60;80.10;;;;;;5527428;25;20005;-75
2024/04/21 09:10:43;;;;;;;3.05;2.75;;;16.30;80.40;;;;;;5525434;26;19997;-75
2024/04/21 09:13:11;;;;;;;3.45;3.20;;;16.00;80.60;;;;;;5494483;26;20446;-75
2024/04/21 09:15:38;;;;;;;3.38;3.08;;;16.00;79.70;;;;;;5527203;25;20431;-75
2024/04/21 09:18:06;;;;;;;2.35;2.15;;;16.10;78.90;;;;;;5527010;25;20430;-74
2024/04/21 09:20:36;;;;;;;3.17;2.97;;;16.10;79.20;;;;;;5526564;25;20404;-75
2024/04/21 09:23:06;;;;;;;2.05;1.92;;;16.00;78.20;;;;;;5494214;26;19998;-74
2024/04/21 09:25:36;;;;;;;3.65;3.42;;;16.10;80.20;;;;;;5525086;26;20069;-74
2024/04/21 09:28:04;;;;;;;3.88;3.58;;;16.00;79.60;;;;;;5524747;26;20001;-74
2024/04/21 09:30:31;;;;;;;3.63;3.33;;;15.80;78.80;;;;;;5524836;26;20005;-74
2024/04/21 09:32:58;;;;;;;2.97;2.78;;;16.00;78.10;;;;;;5526460;25;20012;-74
2024/04/21 09:35:25;;;;;;;3.97;3.67;;;16.00;77.80;;;;;;5524823;26;20001;-74
2024/04/21 09:37:53;;;;;;;3.63;3.33;;;15.50;77.40;;;;;;5524804;26;20011;-73
2024/04/21 09:40:22;;;;;;;6.82;3.28;;;14.90;79.00;;;;;;5526390;25;20002;-73
2024/04/21 09:42:51;;;;;;;3.42;3.13;;;14.20;79.10;;;;;;5493544;26;19994;-74
2024/04/21 09:45:19;;;;;;;3.97;3.67;;;13.90;80.20;;;;;;5524530;26;20021;-74
2024/04/21 09:47:47;;;;;;;4.15;3.05;;;13.70;80.60;;;;;;5524688;26;20451;-75
2024/04/21 09:50:15;;;;;;;3.92;3.55;;;13.40;79.80;;;;;;5524460;26;20478;-74
2024/04/21 09:52:47;;;;;;;3.67;3.42;;;13.70;80.10;;;;;;5525119;26;19997;-74
2024/04/21 09:55:14;;;;;;;3.13;2.92;;;14.70;79.80;;;;;;5526542;25;20064;-74
2024/04/21 09:57:43;;;;;;;3.30;3.10;;;15.60;76.90;;;;;;5526750;25;20001;-74
2024/04/21 10:00:14;;;;;;;3.55;3.25;;;15.70;75.50;;;;;;5523986;26;19997;-74
2024/04/21 10:02:52;;;;;;;3.60;3.40;;;15.10;75.20;;;;;;5526273;26;20490;-74
2024/04/21 10:05:24;;;;;;;2.90;2.60;;;14.50;76.40;;;;;;5524022;26;20390;-74
2024/04/21 10:07:54;;;;;;;3.67;3.10;;;14.50;78.60;;;;;;5524815;26;20077;-74
2024/04/21 10:10:23;;;;;;;2.70;2.50;;;14.90;76.80;;;;;;5525718;25;20367;-74
2024/04/21 10:12:51;;;;;;;3.20;3.00;;;15.30;77.60;;;;;;5524383;26;20050;-74
2024/04/21 10:15:21;;;;;;;2.33;2.13;;;15.40;77.00;;;;;;5524095;26;20071;-74
2024/04/21 10:17:58;;;;;;;3.28;3.03;;;15.20;76.30;;;;;;5526073;25;20446;-74
2024/04/21 10:20:30;;;;;;;3.05;2.78;;;14.90;76.00;;;;;;5525664;25;20008;-74
2024/04/21 10:23:01;;;;;;;3.35;3.13;;;14.70;76.90;;;;;;5526473;25;20029;-74
2024/04/21 10:25:35;;;;;;;2.38;2.17;;;15.50;77.50;;;;;;5526443;25;20001;-75
2024/04/21 10:28:13;;;;;;;3.35;3.15;;;17.00;75.70;;;;;;5524241;26;19997;-75
2024/04/21 10:30:40;;;;;;;2.83;2.50;;;18.60;71.70;;;;;;5524355;26;19997;-75
2024/04/21 10:33:10;;;;;;;2.72;2.53;;;19.00;69.40;;;;;;5525597;25;20017;-74
2024/04/21 10:35:39;;;;;;;3.17;2.97;;;18.70;67.70;;;;;;5524059;26;20049;-75
2024/04/21 10:38:09;;;;;;;2.90;2.75;;;18.50;67.40;;;;;;5523688;26;19997;-74
2024/04/21 10:40:40;;;;;;;2.13;2.00;;;18.10;67.50;;;;;;5525918;25;19998;-74
2024/04/21 10:43:08;;;;;;;2.97;2.78;;;17.90;68.00;;;;;;5525331;25;20037;-74
2024/04/21 10:45:38;;;;;;;3.10;2.90;;;18.00;68.40;;;;;;5523704;26;20010;-74
2024/04/21 10:48:07;;;;;;;3.08;2.58;;;17.70;68.20;;;;;;5525088;25;20400;-74
2024/04/21 10:50:36;;;;;;;2.67;2.47;;;17.10;68.80;;;;;;5523637;26;20009;-74
2024/04/21 10:53:07;;;;;;;2.88;2.67;;;16.30;69.20;;;;;;5523694;26;20029;-74
2024/04/21 10:55:35;;;;;;;2.10;1.90;;;15.50;70.10;;;;;;5496720;26;20320;-74
2024/04/21 10:58:03;;;;;;;3.25;2.95;;;14.80;71.60;;;;;;5496917;26;20013;-74
2024/04/21 11:00:33;;;;;;;2.50;2.30;;;14.30;72.60;;;;;;5527280;26;20016;-73
2024/04/21 11:03:00;;;;;;;3.38;3.10;;;14.00;73.90;;;;;;5528858;25;19997;-74
2024/04/21 11:05:52;;;;;;;2.70;2.50;;;13.80;73.30;;;;;;5526898;26;20004;-74
2024/04/21 11:08:23;;;;;;;4.05;2.63;;;13.60;73.50;;;;;;5528879;25;20010;-74
2024/04/21 11:10:50;;;;;;;3.50;2.85;;;13.40;74.00;;;;;;5529273;25;20039;-74
2024/04/21 11:13:18;;;;;;;2.75;2.60;;;13.20;74.30;;;;;;5527209;26;20005;-74
2024/04/21 11:15:45;;;;;;;2.90;2.53;;;13.00;75.10;;;;;;5527286;26;20004;-73
2024/04/21 11:18:13;;;;;;;3.05;2.85;;;12.80;75.80;;;;;;5526458;26;20005;-74
2024/04/21 11:20:41;;;;;;;2.97;2.78;;;12.70;76.50;;;;;;5528633;25;20008;-74
2024/04/21 11:23:16;;;;;;;2.65;2.45;;;12.50;77.10;;;;;;5528218;25;20009;-74
2024/04/21 11:25:47;;;;;;;2.20;2.00;;;12.30;77.40;;;;;;5526612;26;20388;-74
2024/04/21 11:28:18;;;;;;;2.90;2.67;;;12.10;77.90;;;;;;5526772;25;20009;-74
2024/04/21 11:30:47;;;;;;;2.72;2.53;;;12.10;78.30;;;;;;5528483;25;20518;-73
2024/04/21 11:33:14;;;;;;;3.58;3.38;;;12.10;78.90;;;;;;5526316;26;19998;-73
2024/04/21 11:35:42;;;;;;;3.33;3.13;;;12.20;78.80;;;;;;5526512;26;20009;-74
2024/04/21 11:38:09;;;;;;;3.42;3.13;;;12.30;78.30;;;;;;5495963;26;20012;-74
2024/04/21 11:40:39;;;;;;;2.92;2.72;;;12.50;78.10;;;;;;5528887;26;20328;-74
2024/04/21 11:43:08;;;;;;;3.53;3.33;;;12.90;77.70;;;;;;5527204;25;19997;-73
2024/04/21 11:45:38;;;;;;;3.55;3.33;;;13.60;76.80;;;;;;5528703;25;19993;-74
2024/04/21 11:48:07;;;;;;;2.50;2.40;;;14.50;74.80;;;;;;5526541;26;20037;-73
2024/04/21 11:50:37;;;;;;;3.13;2.92;;;14.90;73.50;;;;;;5528017;25;20013;-74
2024/04/21 11:53:05;;;;;;;2.80;2.47;;;14.80;72.90;;;;;;5496748;26;20004;-74
2024/04/21 11:55:32;;;;;;;3.20;3.00;;;14.60;73.40;;;;;;5456283;26;20015;-74
2024/04/21 11:58:00;;;;;;;2.53;2.33;;;14.50;73.40;;;;;;5492065;26;20007;-74
2024/04/21 12:00:27;;;;;;;2.83;2.63;;;14.60;73.30;;;;;;5500474;25;19998;-74
2024/04/21 12:02:54;;;;;;;3.15;2.92;;;14.50;72.80;;;;;;5503659;26;20022;-74
2024/04/21 12:05:21;;;;;;;2.40;2.20;;;14.50;73.20;;;;;;5496653;26;20026;-74
2024/04/21 12:07:48;;;;;;;3.05;2.78;;;14.50;72.90;;;;;;5488664;26;20026;-74
2024/04/21 12:10:15;;;;;;;3.05;2.85;;;14.40;72.20;;;;;;5490551;26;19998;-74
2024/04/21 12:12:43;;;;;;;2.70;2.47;;;14.30;72.50;;;;;;5489211;26;20357;-74
2024/04/21 12:15:10;;;;;;;3.08;2.88;;;14.20;72.20;;;;;;5491040;26;19998;-74
2024/04/21 12:17:37;;;;;;;2.55;2.35;;;14.00;71.90;;;;;;5519410;26;20396;-74
2024/04/21 12:20:04;;;;;;;3.03;2.88;;;13.90;71.80;;;;;;5489237;26;20018;-74
2024/04/21 12:22:32;;;;;;;3.78;2.90;;;13.90;71.60;;;;;;5490921;26;19994;-74
2024/04/21 12:24:59;;;;;;;2.83;2.63;;;13.90;72.10;;;;;;5491205;26;20004;-74
2024/04/21 12:27:26;;;;;;;2.75;2.55;;;14.10;71.50;;;;;;5488821;26;20006;-74
2024/04/21 12:29:53;;;;;;;2.97;2.78;;;14.40;71.20;;;;;;5490876;26;20075;-74
2024/04/21 12:32:20;;;;;;;3.58;3.38;;;14.70;71.00;;;;;;5458454;26;20005;-74
2024/04/21 12:34:47;;;;;;;3.10;2.90;;;14.70;70.20;;;;;;5491062;26;20005;-74
2024/04/21 12:37:14;;;;;;;3.22;2.92;;;14.60;70.10;;;;;;5519575;26;20010;-75
2024/04/21 12:39:41;;;;;;;3.30;3.00;;;14.80;70.00;;;;;;5519086;26;20074;-74
2024/04/21 12:42:09;;;;;;;3.30;2.63;;;15.30;69.70;;;;;;5490659;26;20392;-75
2024/04/21 12:44:36;;;;;;;2.75;2.60;;;16.20;68.30;;;;;;5488491;26;19998;-75
2024/04/21 12:47:03;;;;;;;3.38;3.08;;;16.80;66.60;;;;;;5488948;26;20081;-75
2024/04/21 12:49:30;;;;;;;3.33;3.13;;;17.10;66.30;;;;;;5488367;26;20022;-75
2024/04/21 12:51:57;;;;;;;2.95;2.60;;;17.00;65.40;;;;;;5488535;26;20017;-74
2024/04/21 12:54:25;;;;;;;3.20;2.55;;;16.70;65.90;;;;;;5488571;26;20134;-74
2024/04/21 12:56:52;;;;;;;2.58;2.38;;;16.40;66.30;;;;;;5490272;26;20010;-75